Time;durP1;ratioP1;P1;durP2;ratioP2;P2;SDS_P1;SDS_P2;PMS_P1;PMS_P2;Temp;Humidity;BMP_temperature;BMP_pressure;BME280_temperature;BME280_humidity;BME280_pressure;Samples;Min_cycle;Max_cycle;Signal;HPM_P1;HPM_P2
2023/09/07 00:01:53;0.00;0.00;0.62;0.00;0.00;0.62;4.73;4.10;;;31.20;28.10;;;;;;2251991;61;20366;-58
2023/09/07 00:04:37;0.00;0.00;0.62;0.00;0.00;0.62;5.00;4.60;;;31.10;28.10;;;;;;2252486;61;20363;-60
2023/09/07 00:07:23;0.00;0.00;0.62;0.00;0.00;0.62;4.70;4.17;;;31.20;28.20;;;;;;2252508;61;20383;-61
2023/09/07 00:10:09;0.00;0.00;0.62;0.00;0.00;0.62;5.30;4.03;;;31.20;28.20;;;;;;2251950;61;20367;-61
2023/09/07 00:12:53;0.00;0.00;0.62;0.00;0.00;0.62;4.80;4.30;;;31.10;28.20;;;;;;2252489;61;20367;-58
2023/09/07 00:15:38;0.00;0.00;0.62;0.00;0.00;0.62;5.43;4.30;;;31.10;28.20;;;;;;2252492;61;20383;-58
2023/09/07 00:18:23;0.00;0.00;0.62;0.00;0.00;0.62;4.80;4.30;;;31.10;28.20;;;;;;2252553;61;20410;-60
2023/09/07 00:21:08;0.00;0.00;0.62;0.00;0.00;0.62;4.60;3.87;;;31.10;28.20;;;;;;2252196;61;20371;-59
2023/09/07 00:23:55;0.00;0.00;0.62;0.00;0.00;0.62;4.10;3.70;;;31.10;28.20;;;;;;2252036;61;20441;-60
2023/09/07 00:26:39;0.00;0.00;0.62;0.00;0.00;0.62;5.73;4.53;;;31.10;28.20;;;;;;2252500;61;20398;-60
2023/09/07 00:29:24;0.00;0.00;0.62;0.00;0.00;0.62;4.67;4.27;;;31.10;28.20;;;;;;2252023;61;20394;-60
2023/09/07 00:32:09;0.00;0.00;0.62;0.00;0.00;0.62;4.47;4.07;;;31.00;28.10;;;;;;2252089;61;20371;-61
2023/09/07 00:34:53;0.00;0.00;0.62;0.00;0.00;0.62;5.33;4.27;;;31.10;28.20;;;;;;2251758;61;20375;-61
2023/09/07 00:37:38;0.00;0.00;0.62;0.00;0.00;0.62;4.20;3.80;;;31.10;28.20;;;;;;2251932;61;20502;-61
2023/09/07 00:40:26;0.00;0.00;0.62;0.00;0.00;0.62;4.37;3.97;;;31.00;28.20;;;;;;2251651;61;20513;-60
2023/09/07 00:43:11;0.00;0.00;0.62;0.00;0.00;0.62;4.70;4.20;;;31.00;28.20;;;;;;2251769;61;20422;-61
2023/09/07 00:45:56;0.00;0.00;0.62;0.00;0.00;0.62;4.33;3.90;;;31.00;28.30;;;;;;2252299;61;20363;-58
2023/09/07 00:48:41;0.00;0.00;0.62;0.00;0.00;0.62;4.73;4.20;;;31.00;28.30;;;;;;2253127;61;20792;-60
2023/09/07 00:51:26;0.00;0.00;0.62;0.00;0.00;0.62;7.40;4.03;;;31.00;28.30;;;;;;2252992;61;20370;-60
2023/09/07 00:54:11;0.00;0.00;0.62;0.00;0.00;0.62;5.93;5.00;;;31.00;28.30;;;;;;2252439;61;20362;-60
2023/09/07 00:56:57;0.00;0.00;0.62;0.00;0.00;0.62;4.43;4.03;;;31.00;28.90;;;;;;2252972;61;20383;-60
2023/09/07 00:59:42;0.00;0.00;0.62;0.00;0.00;0.62;5.47;4.13;;;31.00;28.40;;;;;;2252185;61;20371;-61
2023/09/07 01:02:28;0.00;0.00;0.62;0.00;0.00;0.62;4.23;3.83;;;30.90;28.40;;;;;;2252579;61;20386;-58
2023/09/07 01:05:13;0.00;0.00;0.62;0.00;0.00;0.62;5.00;3.90;;;30.90;28.40;;;;;;2252725;61;20370;-59
2023/09/07 01:08:06;0.00;0.00;0.62;0.00;0.00;0.62;7.53;4.60;;;30.90;28.40;;;;;;2252056;61;20413;-61
2023/09/07 01:10:50;0.00;0.00;0.62;0.00;0.00;0.62;4.40;4.00;;;30.90;28.40;;;;;;2252909;61;20944;-58
2023/09/07 01:13:36;0.00;0.00;0.62;0.00;0.00;0.62;5.13;4.10;;;30.90;28.40;;;;;;2252551;61;20363;-57
2023/09/07 01:16:21;0.00;0.00;0.62;0.00;0.00;0.62;4.67;4.17;;;30.90;28.40;;;;;;2251944;61;20440;-59
2023/09/07 01:19:07;0.00;0.00;0.62;0.00;0.00;0.62;5.87;3.57;;;30.90;28.40;;;;;;2252179;61;20367;-61
2023/09/07 01:21:54;0.00;0.00;0.62;0.00;0.00;0.62;4.93;4.00;;;30.90;28.40;;;;;;2253165;61;20405;-61
2023/09/07 01:24:39;0.00;0.00;0.62;0.00;0.00;0.62;6.80;3.57;;;30.90;28.40;;;;;;2252564;61;20432;-61
2023/09/07 01:27:24;0.00;0.00;0.62;0.00;0.00;0.62;4.10;3.67;;;30.80;28.30;;;;;;2252557;61;20422;-56
2023/09/07 01:30:11;0.00;0.00;0.62;0.00;0.00;0.62;4.20;3.63;;;30.80;28.30;;;;;;2251440;61;20378;-59
2023/09/07 01:32:56;0.00;0.00;0.62;0.00;0.00;0.62;5.80;4.20;;;30.80;28.30;;;;;;2252357;61;20363;-60
2023/09/07 01:35:41;0.00;0.00;0.62;0.00;0.00;0.62;5.83;4.17;;;30.80;28.30;;;;;;2249510;61;20418;-61
2023/09/07 01:38:27;0.00;0.00;0.62;0.00;0.00;0.62;5.90;4.20;;;30.80;28.30;;;;;;2247532;61;20853;-62
2023/09/07 01:41:12;0.00;0.00;0.62;0.00;0.00;0.62;4.10;3.70;;;30.80;28.30;;;;;;2253616;61;20582;-59
2023/09/07 01:43:56;0.00;0.00;0.62;0.00;0.00;0.62;5.40;4.20;;;30.80;28.30;;;;;;2252842;61;20389;-61
2023/09/07 01:46:41;0.00;0.00;0.62;0.00;0.00;0.62;4.73;4.13;;;30.80;28.30;;;;;;2251727;61;20406;-60
2023/09/07 01:49:25;0.00;0.00;0.62;0.00;0.00;0.62;4.17;3.77;;;30.80;28.30;;;;;;2252551;61;20449;-59
2023/09/07 01:52:10;0.00;0.00;0.62;0.00;0.00;0.62;6.47;4.27;;;30.80;28.30;;;;;;2252479;61;20463;-59
2023/09/07 01:54:57;0.00;0.00;0.62;0.00;0.00;0.62;3.83;3.53;;;30.70;28.30;;;;;;2252916;61;20582;-59
2023/09/07 01:57:42;0.00;0.00;0.62;0.00;0.00;0.62;4.63;4.17;;;30.70;28.30;;;;;;2252594;61;20394;-61
2023/09/07 02:00:26;0.00;0.00;0.62;0.00;0.00;0.62;4.30;3.80;;;30.70;28.30;;;;;;2251739;61;20780;-59
2023/09/07 02:03:10;0.00;0.00;0.62;0.00;0.00;0.62;4.90;4.20;;;30.70;28.30;;;;;;2253032;61;20480;-58
2023/09/07 02:05:55;0.00;0.00;0.62;0.00;0.00;0.62;4.20;3.80;;;30.70;28.30;;;;;;2252547;61;20880;-54
2023/09/07 02:08:40;0.00;0.00;0.62;0.00;0.00;0.62;5.10;4.23;;;30.70;28.30;;;;;;2251899;61;20467;-59
2023/09/07 02:11:27;0.00;0.00;0.62;0.00;0.00;0.62;4.33;3.93;;;30.70;28.30;;;;;;2252243;61;20371;-60
2023/09/07 02:14:11;0.00;0.00;0.62;0.00;0.00;0.62;3.90;3.50;;;30.70;28.20;;;;;;2252533;61;20370;-60
2023/09/07 02:16:56;0.00;0.00;0.62;0.00;0.00;0.62;5.70;4.00;;;30.70;28.20;;;;;;2252672;61;21003;-59
2023/09/07 02:19:41;0.00;0.00;0.62;0.00;0.00;0.62;5.13;3.70;;;30.70;28.20;;;;;;2251732;61;20390;-57
2023/09/07 02:22:25;0.00;0.00;0.62;0.00;0.00;0.62;5.23;3.70;;;30.70;28.20;;;;;;2251762;61;20351;-61
2023/09/07 02:25:10;0.00;0.00;0.62;0.00;0.00;0.62;4.87;4.33;;;30.70;28.20;;;;;;2252458;61;20369;-57
2023/09/07 02:27:56;0.00;0.00;0.62;0.00;0.00;0.62;4.60;4.20;;;30.70;28.20;;;;;;2252532;61;20394;-60
2023/09/07 02:30:40;0.00;0.00;0.62;0.00;0.00;0.62;4.30;3.80;;;30.70;28.20;;;;;;2251593;61;20434;-59
2023/09/07 02:33:25;0.00;0.00;0.62;0.00;0.00;0.62;4.83;4.33;;;30.60;28.10;;;;;;2252359;61;20398;-60
2023/09/07 02:36:10;0.00;0.00;0.62;0.00;0.00;0.62;4.73;4.20;;;30.60;28.10;;;;;;2252037;61;20386;-60
2023/09/07 02:38:54;0.00;0.00;0.62;0.00;0.00;0.62;4.43;4.03;;;30.60;28.10;;;;;;2252490;61;20370;-60
2023/09/07 02:41:39;0.00;0.00;0.62;0.00;0.00;0.62;5.47;4.33;;;30.60;28.10;;;;;;2252787;61;20907;-58
2023/09/07 02:44:25;0.00;0.00;0.62;0.00;0.00;0.62;4.77;4.37;;;30.60;28.10;;;;;;2256955;61;20944;-61
2023/09/07 02:47:10;0.00;0.00;0.62;0.00;0.00;0.62;4.77;4.37;;;30.60;28.10;;;;;;2257767;61;20433;-61
2023/09/07 02:49:55;0.00;0.00;0.62;0.00;0.00;0.62;5.73;4.50;;;30.50;28.00;;;;;;2257119;61;20362;-62
2023/09/07 02:52:40;0.00;0.00;0.62;0.00;0.00;0.62;4.63;4.23;;;30.60;28.10;;;;;;2256417;61;20390;-62
2023/09/07 02:55:24;0.00;0.00;0.62;0.00;0.00;0.62;5.50;3.80;;;30.50;28.00;;;;;;2256948;61;20394;-62
2023/09/07 02:58:10;0.00;0.00;0.62;0.00;0.00;0.62;4.73;4.23;;;30.50;28.00;;;;;;2256902;61;20367;-61
2023/09/07 03:00:56;0.00;0.00;0.62;0.00;0.00;0.62;4.03;3.63;;;30.50;28.00;;;;;;2256192;61;20378;-62
2023/09/07 03:03:43;0.00;0.00;0.62;0.00;0.00;0.62;4.90;4.50;;;30.50;28.00;;;;;;2257047;61;20478;-62
2023/09/07 03:06:28;0.00;0.00;0.62;0.00;0.00;0.62;5.53;4.37;;;30.50;28.00;;;;;;2256826;61;20390;-60
2023/09/07 03:09:14;0.00;0.00;0.62;0.00;0.00;0.62;4.90;4.33;;;30.50;28.10;;;;;;2256625;61;20362;-60
2023/09/07 03:11:59;0.00;0.00;0.62;0.00;0.00;0.62;4.90;4.50;;;30.50;28.10;;;;;;2257822;61;20418;-60
2023/09/07 03:14:44;0.00;0.00;0.62;0.00;0.00;0.62;4.53;4.03;;;30.50;28.10;;;;;;2257061;61;20362;-66
2023/09/07 03:17:30;0.00;0.00;0.62;0.00;0.00;0.62;6.43;4.57;;;30.40;28.10;;;;;;2257166;61;20482;-62
2023/09/07 03:20:19;0.00;0.00;0.62;0.00;0.00;0.62;4.83;4.33;;;30.40;28.20;;;;;;2256761;61;20833;-62
2023/09/07 03:23:07;0.00;0.00;0.62;0.00;0.00;0.62;5.03;4.53;;;30.40;28.10;;;;;;2256342;61;20399;-62
2023/09/07 03:25:53;0.00;0.00;0.62;0.00;0.00;0.62;5.20;4.70;;;30.40;28.10;;;;;;2256839;61;20363;-62
2023/09/07 03:28:38;0.00;0.00;0.62;0.00;0.00;0.62;5.20;4.70;;;30.40;28.20;;;;;;2256614;61;20362;-60
2023/09/07 03:31:23;0.00;0.00;0.62;0.00;0.00;0.62;4.70;4.30;;;30.40;28.10;;;;;;2256723;61;20367;-61
2023/09/07 03:34:10;0.00;0.00;0.62;0.00;0.00;0.62;4.40;4.00;;;30.40;28.10;;;;;;2256820;61;20773;-62
2023/09/07 03:36:54;0.00;0.00;0.62;0.00;0.00;0.62;5.00;4.50;;;30.40;28.20;;;;;;2256331;61;20600;-63
2023/09/07 03:39:39;0.00;0.00;0.62;0.00;0.00;0.62;4.80;4.30;;;30.30;28.10;;;;;;2256580;61;20431;-61
2023/09/07 03:42:24;0.00;0.00;0.62;0.00;0.00;0.62;4.50;4.10;;;30.30;28.10;;;;;;2256734;61;20792;-62
2023/09/07 03:45:09;0.00;0.00;0.62;0.00;0.00;0.62;5.23;4.73;;;30.30;28.10;;;;;;2256468;61;20403;-62
2023/09/07 03:47:54;0.00;0.00;0.62;0.00;0.00;0.62;4.70;4.30;;;30.30;28.10;;;;;;2256608;61;20414;-62
2023/09/07 03:50:41;0.00;0.00;0.62;0.00;0.00;0.62;5.10;4.60;;;30.30;28.10;;;;;;2256286;61;20375;-61
2023/09/07 03:53:25;0.00;0.00;0.62;0.00;0.00;0.62;5.13;4.33;;;30.30;28.10;;;;;;2256827;61;20398;-60
2023/09/07 03:56:10;0.00;0.00;0.62;0.00;0.00;0.62;4.83;4.43;;;30.20;28.10;;;;;;2256265;61;20438;-61
2023/09/07 03:58:55;0.00;0.00;0.62;0.00;0.00;0.62;5.00;4.57;;;30.20;28.60;;;;;;2256931;61;20358;-62
2023/09/07 04:01:40;0.00;0.00;0.62;0.00;0.00;0.62;4.47;4.07;;;30.20;28.10;;;;;;2256747;61;20366;-61
2023/09/07 04:04:25;0.00;0.00;0.62;0.00;0.00;0.62;4.60;4.20;;;30.20;28.10;;;;;;2257732;61;20406;-67
2023/09/07 04:07:11;0.00;0.00;0.62;0.00;0.00;0.62;5.33;4.50;;;30.10;28.00;;;;;;2256822;61;20936;-63
2023/09/07 04:09:56;0.00;0.00;0.62;0.00;0.00;0.62;5.00;4.23;;;30.20;28.10;;;;;;2256545;61;20394;-62
2023/09/07 04:12:40;0.00;0.00;0.62;0.00;0.00;0.62;6.33;5.23;;;30.10;28.00;;;;;;2256979;61;20367;-62
2023/09/07 04:15:26;0.00;0.00;0.62;0.00;0.00;0.62;5.03;4.00;;;30.10;28.00;;;;;;2257193;61;20387;-61
2023/09/07 04:18:12;0.00;0.00;0.62;0.00;0.00;0.62;5.00;4.50;;;30.10;28.00;;;;;;2256828;61;20367;-62
2023/09/07 04:21:05;0.00;0.00;0.62;0.00;0.00;0.62;5.50;4.97;;;30.10;28.00;;;;;;2256385;61;20437;-61
2023/09/07 04:23:51;0.00;0.00;0.62;0.00;0.00;0.62;5.80;4.87;;;30.10;28.00;;;;;;2257641;61;20385;-61
2023/09/07 04:26:37;0.00;0.00;0.62;0.00;0.00;0.62;5.57;4.97;;;30.00;27.90;;;;;;2257481;61;20413;-60
2023/09/07 04:29:22;0.00;0.00;0.62;0.00;0.00;0.62;6.87;5.50;;;30.00;27.90;;;;;;2256850;61;20405;-61
2023/09/07 04:32:07;0.00;0.00;0.62;0.00;0.00;0.62;5.77;4.83;;;29.90;28.00;;;;;;2257337;61;20370;-61
2023/09/07 04:34:54;0.00;0.00;0.62;0.00;0.00;0.62;4.70;4.30;;;29.90;28.00;;;;;;2257344;61;20939;-62
2023/09/07 04:37:43;0.00;0.00;0.62;0.00;0.00;0.62;5.70;5.10;;;29.80;28.00;;;;;;2256832;61;20402;-61
2023/09/07 04:40:29;0.00;0.00;0.62;0.00;0.00;0.62;6.60;4.97;;;29.80;28.00;;;;;;2256772;61;20947;-63
2023/09/07 04:43:14;0.00;0.00;0.62;0.00;0.00;0.62;6.10;5.50;;;29.80;28.10;;;;;;2256554;61;20397;-62
2023/09/07 04:45:59;0.00;0.00;0.62;0.00;0.00;0.62;5.30;4.80;;;29.70;28.10;;;;;;2257206;61;20400;-62
2023/09/07 04:48:44;0.00;0.00;0.62;0.00;0.00;0.62;8.13;5.30;;;29.70;28.20;;;;;;2257232;61;20367;-62
2023/09/07 04:51:29;0.00;0.00;0.62;0.00;0.00;0.62;5.50;5.00;;;29.70;28.30;;;;;;2256565;61;20374;-62
2023/09/07 04:54:16;0.00;0.00;0.62;0.00;0.00;0.62;7.07;4.90;;;29.70;28.30;;;;;;2257440;61;20378;-62
2023/09/07 04:57:02;0.00;0.00;0.62;0.00;0.00;0.62;7.60;5.10;;;29.60;28.30;;;;;;2256653;61;20446;-61
2023/09/07 04:59:47;0.00;0.00;0.62;0.00;0.00;0.62;6.90;5.37;;;29.60;28.30;;;;;;2256696;61;20840;-62
2023/09/07 05:02:32;0.00;0.00;0.62;0.00;0.00;0.62;5.20;4.70;;;29.70;28.30;;;;;;2256848;61;20358;-62
2023/09/07 05:05:16;0.00;0.00;0.62;0.00;0.00;0.62;5.53;4.87;;;29.60;28.30;;;;;;2256570;61;20425;-61
2023/09/07 05:08:01;0.00;0.00;0.62;0.00;0.00;0.62;5.50;5.00;;;29.60;28.40;;;;;;2257370;61;20394;-62
2023/09/07 05:10:46;0.00;0.00;0.62;0.00;0.00;0.62;5.70;5.20;;;29.60;28.40;;;;;;2259520;61;20370;-63
2023/09/07 05:13:32;0.00;0.00;0.62;0.00;0.00;0.62;5.20;4.70;;;29.60;28.40;;;;;;2257192;61;20382;-62
2023/09/07 05:16:19;0.00;0.00;0.62;0.00;0.00;0.62;5.43;4.93;;;29.60;28.40;;;;;;2257240;61;21043;-60
2023/09/07 05:19:04;0.00;0.00;0.62;0.00;0.00;0.62;7.73;5.40;;;29.60;28.40;;;;;;2257435;61;20372;-61
2023/09/07 05:21:49;0.00;0.00;0.62;0.00;0.00;0.62;7.33;5.03;;;29.60;28.40;;;;;;2257138;61;20363;-61
2023/09/07 05:24:34;0.00;0.00;0.62;0.00;0.00;0.62;5.53;5.00;;;29.60;28.50;;;;;;2256964;61;20402;-60
2023/09/07 05:27:19;0.00;0.00;0.62;0.00;0.00;0.62;6.30;5.37;;;29.60;28.50;;;;;;2258999;61;20387;-61
2023/09/07 05:30:07;0.00;0.00;0.62;0.00;0.00;0.62;5.63;5.13;;;29.60;28.50;;;;;;2256899;61;20362;-62
2023/09/07 05:32:52;0.00;0.00;0.62;0.00;0.00;0.62;5.57;4.87;;;29.60;28.50;;;;;;2256948;61;20366;-61
2023/09/07 05:35:37;0.00;0.00;0.62;0.00;0.00;0.62;6.10;4.83;;;29.60;28.50;;;;;;2259287;61;20539;-61
2023/09/07 05:38:21;0.00;0.00;0.62;0.00;0.00;0.62;6.10;5.53;;;29.60;28.50;;;;;;2256629;61;20374;-61
2023/09/07 05:41:07;0.00;0.00;0.62;0.00;0.00;0.62;6.30;5.60;;;29.50;28.40;;;;;;2639795;45;20367;-62
2023/09/07 05:43:53;0.00;0.00;0.62;0.00;0.00;0.62;6.00;5.03;;;29.50;28.40;;;;;;2259777;61;20406;-62
2023/09/07 05:46:40;0.00;0.00;0.62;0.00;0.00;0.62;5.53;4.77;;;29.50;28.40;;;;;;2256872;61;20390;-62
2023/09/07 05:49:25;0.00;0.00;0.62;0.00;0.00;0.62;6.07;5.40;;;29.40;28.40;;;;;;2256295;61;20367;-62
2023/09/07 05:52:09;0.00;0.00;0.62;0.00;0.00;0.62;9.10;5.67;;;29.40;28.40;;;;;;2257201;61;20398;-62
2023/09/07 05:54:54;0.00;0.00;0.62;0.00;0.00;0.62;7.87;5.63;;;29.40;28.50;;;;;;2256738;61;20985;-62
2023/09/07 05:57:38;0.00;0.00;0.62;0.00;0.00;0.62;6.10;5.33;;;29.30;28.50;;;;;;2256534;61;20394;-62
2023/09/07 06:00:23;0.00;0.00;0.62;0.00;0.00;0.62;5.83;5.33;;;29.30;28.50;;;;;;2256380;61;20370;-61
2023/09/07 06:03:11;0.00;0.00;0.62;0.00;0.00;0.62;6.30;5.63;;;29.30;28.50;;;;;;2256892;61;20461;-61
2023/09/07 06:05:56;0.00;0.00;0.62;0.00;0.00;0.62;6.90;6.20;;;29.30;28.60;;;;;;2256836;61;20426;-61
2023/09/07 06:08:41;0.00;0.00;0.62;0.00;0.00;0.62;6.33;5.73;;;29.30;28.70;;;;;;2256733;61;20426;-62
2023/09/07 06:11:26;0.00;0.00;0.62;0.00;0.00;0.62;7.40;5.73;;;29.20;28.70;;;;;;2255657;61;20367;-62
2023/09/07 06:14:11;0.00;0.00;0.62;0.00;0.00;0.62;7.10;5.60;;;29.20;28.70;;;;;;2256728;61;20378;-62
2023/09/07 06:16:56;0.00;0.00;0.62;0.00;0.00;0.62;7.70;4.93;;;29.20;28.70;;;;;;2256659;61;20479;-62
2023/09/07 06:19:43;0.00;0.00;0.62;0.00;0.00;0.62;6.60;6.00;;;29.20;28.70;;;;;;2258556;61;20430;-62
2023/09/07 06:22:28;0.00;0.00;0.62;0.00;0.00;0.62;6.10;5.50;;;29.20;28.70;;;;;;2256519;61;20782;-62
2023/09/07 06:25:14;0.00;0.00;0.62;0.00;0.00;0.62;6.20;5.60;;;29.20;28.80;;;;;;2259765;61;20458;-61
2023/09/07 06:27:59;0.00;0.00;0.62;0.00;0.00;0.62;8.20;5.50;;;29.20;28.80;;;;;;2256570;61;20410;-61
2023/09/07 06:30:43;0.00;0.00;0.62;0.00;0.00;0.62;8.47;5.60;;;29.20;28.80;;;;;;2256711;61;20414;-61
2023/09/07 06:33:28;0.00;0.00;0.62;0.00;0.00;0.62;6.03;5.40;;;29.20;28.90;;;;;;2256852;61;20390;-60
2023/09/07 06:36:14;0.00;0.00;0.62;0.00;0.00;0.62;8.93;6.40;;;29.20;28.90;;;;;;2257162;61;20414;-62
2023/09/07 06:38:59;0.00;0.00;0.62;0.00;0.00;0.62;7.40;6.70;;;29.20;29.00;;;;;;2256980;61;20398;-62
2023/09/07 06:41:46;0.00;0.00;0.62;0.00;0.00;0.62;7.77;6.60;;;29.20;29.00;;;;;;2256561;61;20904;-62
2023/09/07 06:44:33;0.00;0.00;0.62;0.00;0.00;0.62;7.30;5.40;;;29.20;29.00;;;;;;2257259;61;20971;-62
2023/09/07 06:47:19;0.00;0.00;0.62;0.00;0.00;0.62;6.30;5.70;;;29.20;29.00;;;;;;2257213;61;21027;-62
2023/09/07 06:50:05;0.00;0.00;0.62;0.00;0.00;0.62;6.00;5.40;;;29.20;29.00;;;;;;2256331;61;20366;-62
2023/09/07 06:52:52;0.00;0.00;0.62;0.00;0.00;0.62;6.67;6.00;;;29.30;29.10;;;;;;2257144;61;20370;-63
2023/09/07 06:55:37;0.00;0.00;0.62;0.00;0.00;0.62;6.47;5.87;;;29.20;29.00;;;;;;2256404;61;20379;-61
2023/09/07 06:58:21;0.00;0.00;0.62;0.00;0.00;0.62;6.77;6.17;;;29.30;29.00;;;;;;2257067;61;20387;-62
2023/09/07 07:01:07;0.00;0.00;0.62;0.00;0.00;0.62;6.20;5.70;;;29.20;29.50;;;;;;2256713;61;20428;-61
2023/09/07 07:03:52;0.00;0.00;0.62;0.00;0.00;0.62;6.97;6.37;;;29.20;29.50;;;;;;2256331;61;20394;-62
2023/09/07 07:06:38;0.00;0.00;0.62;0.00;0.00;0.62;7.67;6.40;;;29.20;29.00;;;;;;2256580;61;20386;-61
2023/09/07 07:09:23;0.00;0.00;0.62;0.00;0.00;0.62;7.00;5.60;;;29.20;29.00;;;;;;2256936;61;20391;-61
2023/09/07 07:12:08;0.00;0.00;0.62;0.00;0.00;0.62;6.40;5.80;;;29.20;29.00;;;;;;2256426;61;20502;-60
2023/09/07 07:14:53;0.00;0.00;0.62;0.00;0.00;0.62;6.63;6.03;;;29.20;29.00;;;;;;2256741;61;20366;-61
2023/09/07 07:17:38;0.00;0.00;0.62;0.00;0.00;0.62;7.60;6.53;;;29.20;29.00;;;;;;2256623;61;20386;-58
2023/09/07 07:20:23;0.00;0.00;0.62;0.00;0.00;0.62;6.30;5.70;;;29.20;29.00;;;;;;2256185;61;20370;-61
2023/09/07 07:23:08;0.00;0.00;0.62;0.00;0.00;0.62;9.87;6.40;;;29.20;29.00;;;;;;2256638;61;20433;-62
2023/09/07 07:25:55;0.00;0.00;0.62;0.00;0.00;0.62;6.33;5.73;;;29.20;29.00;;;;;;2258983;61;20414;-62
2023/09/07 07:28:40;0.00;0.00;0.62;0.00;0.00;0.62;6.87;6.27;;;29.20;29.10;;;;;;2256114;61;20367;-62
2023/09/07 07:31:25;0.00;0.00;0.62;0.00;0.00;0.62;7.80;6.83;;;29.20;29.10;;;;;;2255985;61;20402;-63
2023/09/07 07:34:09;0.00;0.00;0.62;0.00;0.00;0.62;9.63;6.47;;;29.20;29.10;;;;;;2256408;61;20819;-61
2023/09/07 07:36:54;0.00;0.00;0.62;0.00;0.00;0.62;6.63;6.03;;;29.20;29.20;;;;;;2256806;61;20382;-61
2023/09/07 07:39:40;0.00;0.00;0.62;0.00;0.00;0.62;8.93;6.20;;;29.20;29.20;;;;;;2256499;61;20362;-61
2023/09/07 07:42:26;0.00;0.00;0.62;0.00;0.00;0.62;6.60;6.00;;;29.20;29.80;;;;;;2256524;61;20375;-61
2023/09/07 07:45:12;0.00;0.00;0.62;0.00;0.00;0.62;6.57;5.93;;;29.20;29.30;;;;;;2256776;61;20391;-63
2023/09/07 07:47:57;0.00;0.00;0.62;0.00;0.00;0.62;9.40;6.73;;;29.20;29.30;;;;;;2256104;61;20386;-61
2023/09/07 07:50:43;0.00;0.00;0.62;0.00;0.00;0.62;7.40;5.83;;;29.20;29.30;;;;;;2256427;61;20370;-62
2023/09/07 07:53:31;0.00;0.00;0.62;0.00;0.00;0.62;6.00;5.43;;;29.20;29.30;;;;;;2256743;61;20455;-62
2023/09/07 07:56:17;0.00;0.00;0.62;0.00;0.00;0.62;7.27;6.57;;;29.20;29.40;;;;;;2256193;61;20838;-62
2023/09/07 07:59:03;0.00;0.00;0.62;0.00;0.00;0.62;8.20;6.50;;;29.10;29.40;;;;;;2256852;61;20366;-61
2023/09/07 08:01:48;0.00;0.00;0.62;0.00;0.00;0.62;6.73;6.13;;;29.10;29.40;;;;;;2256823;61;20777;-63
2023/09/07 08:04:34;0.00;0.00;0.62;0.00;0.00;0.62;9.40;6.40;;;29.10;29.50;;;;;;2256862;61;20414;-61
2023/09/07 08:07:19;0.00;0.00;0.62;0.00;0.00;0.62;7.33;6.07;;;29.10;29.50;;;;;;2256879;61;20459;-62
2023/09/07 08:10:05;0.00;0.00;0.62;0.00;0.00;0.62;6.80;5.67;;;29.10;29.60;;;;;;2256408;61;20813;-62
2023/09/07 08:12:54;0.00;0.00;0.62;0.00;0.00;0.62;7.77;6.50;;;29.10;29.70;;;;;;2256380;61;20490;-61
2023/09/07 08:15:41;0.00;0.00;0.62;0.00;0.00;0.62;6.70;5.87;;;29.10;29.70;;;;;;2259620;61;20378;-62
2023/09/07 08:18:26;0.00;0.00;0.62;0.00;0.00;0.62;7.10;6.07;;;29.10;29.70;;;;;;2259169;61;20451;-62
2023/09/07 08:21:12;0.00;0.00;0.62;0.00;0.00;0.62;6.00;5.40;;;29.10;29.80;;;;;;2259392;61;20451;-62
2023/09/07 08:23:56;0.00;0.00;0.62;0.00;0.00;0.62;8.30;6.93;;;29.10;29.80;;;;;;2256749;61;20400;-62
2023/09/07 08:26:41;0.00;0.00;0.62;0.00;0.00;0.62;6.67;5.97;;;29.10;29.90;;;;;;2257107;61;20405;-62
2023/09/07 08:29:26;0.00;0.00;0.62;0.00;0.00;0.62;7.27;6.13;;;29.10;30.00;;;;;;2256986;61;20414;-61
2023/09/07 08:32:14;0.00;0.00;0.62;0.00;0.00;0.62;6.30;5.70;;;29.10;30.00;;;;;;2256492;61;20939;-62
2023/09/07 08:35:00;0.00;0.00;0.62;0.00;0.00;0.62;6.27;5.67;;;29.10;30.00;;;;;;2257142;61;20363;-62
2023/09/07 08:37:45;0.00;0.00;0.62;0.00;0.00;0.62;9.20;6.50;;;29.10;30.10;;;;;;2257063;61;20402;-61
2023/09/07 08:40:29;0.00;0.00;0.62;0.00;0.00;0.62;6.10;5.50;;;29.10;30.20;;;;;;2256431;61;20386;-62
2023/09/07 08:43:14;0.00;0.00;0.62;0.00;0.00;0.62;6.27;5.60;;;29.10;30.30;;;;;;2256757;61;20387;-62
2023/09/07 08:46:09;0.00;0.00;0.62;0.00;0.00;0.62;6.90;5.73;;;29.10;30.40;;;;;;2256395;61;20426;-61
2023/09/07 08:48:59;0.00;0.00;0.62;0.00;0.00;0.62;6.30;5.70;;;29.10;30.40;;;;;;2256962;61;20362;-62
2023/09/07 08:51:44;0.00;0.00;0.62;0.00;0.00;0.62;6.70;6.00;;;29.10;30.40;;;;;;2258476;61;20374;-60
2023/09/07 08:54:30;0.00;0.00;0.62;0.00;0.00;0.62;8.53;5.87;;;29.10;30.50;;;;;;2256236;61;20374;-61
2023/09/07 08:57:15;0.00;0.00;0.62;0.00;0.00;0.62;6.43;5.83;;;29.10;30.50;;;;;;2256602;61;20378;-60
2023/09/07 09:00:00;0.00;0.00;0.62;0.00;0.00;0.62;5.70;5.20;;;29.10;30.60;;;;;;2257011;61;20363;-60
2023/09/07 09:02:47;0.00;0.00;0.62;0.00;0.00;0.62;6.60;5.67;;;29.10;30.60;;;;;;2256881;61;20939;-61
2023/09/07 09:05:34;0.00;0.00;0.62;0.00;0.00;0.62;6.73;5.30;;;29.10;30.60;;;;;;2256456;61;20363;-63
2023/09/07 09:08:20;0.00;0.00;0.62;0.00;0.00;0.62;10.60;5.40;;;29.10;30.70;;;;;;2257091;61;20803;-61
2023/09/07 09:11:05;0.00;0.00;0.62;0.00;0.00;0.62;8.93;6.70;;;29.10;30.70;;;;;;2257694;61;20471;-60
2023/09/07 09:13:52;0.00;0.00;0.62;0.00;0.00;0.62;6.30;5.43;;;29.10;30.80;;;;;;2257486;61;20845;-61
2023/09/07 09:16:36;0.00;0.00;0.62;0.00;0.00;0.62;7.93;5.80;;;29.10;30.80;;;;;;2257154;61;20421;-61
2023/09/07 09:19:31;0.00;0.00;0.62;0.00;0.00;0.62;7.87;6.50;;;29.10;30.80;;;;;;2257610;61;20386;-60
2023/09/07 09:22:19;0.00;0.00;0.62;0.00;0.00;0.62;6.20;5.60;;;29.10;30.90;;;;;;2257689;61;20820;-61
2023/09/07 09:25:05;0.00;0.00;0.62;0.00;0.00;0.62;6.43;5.73;;;29.10;30.80;;;;;;2259909;61;20478;-61
2023/09/07 09:27:50;0.00;0.00;0.62;0.00;0.00;0.62;6.50;6.00;;;29.10;30.80;;;;;;2257576;61;20390;-60
2023/09/07 09:30:35;0.00;0.00;0.62;0.00;0.00;0.62;13.67;6.57;;;29.10;30.80;;;;;;2257250;61;20366;-64
2023/09/07 09:33:21;0.00;0.00;0.62;0.00;0.00;0.62;6.03;5.43;;;29.10;30.90;;;;;;2257016;61;20383;-61
2023/09/07 09:36:06;0.00;0.00;0.62;0.00;0.00;0.62;7.63;5.93;;;29.10;30.90;;;;;;2256997;61;20480;-60
2023/09/07 09:38:53;0.00;0.00;0.62;0.00;0.00;0.62;6.50;5.90;;;29.20;31.00;;;;;;2257670;61;20359;-60
2023/09/07 09:41:39;0.00;0.00;0.62;0.00;0.00;0.62;5.90;5.40;;;29.20;31.60;;;;;;2257389;61;20366;-61
2023/09/07 09:44:26;0.00;0.00;0.62;0.00;0.00;0.62;8.13;6.50;;;29.20;30.90;;;;;;2257773;61;20430;-60
2023/09/07 09:47:13;0.00;0.00;0.62;0.00;0.00;0.62;7.90;6.37;;;29.20;30.90;;;;;;2257058;61;20393;-61
2023/09/07 09:50:00;0.00;0.00;0.62;0.00;0.00;0.62;10.23;5.60;;;29.20;30.90;;;;;;2257546;61;20370;-65
2023/09/07 09:52:47;0.00;0.00;0.62;0.00;0.00;0.62;6.33;5.73;;;29.20;30.90;;;;;;2257594;61;20389;-61
2023/09/07 09:55:33;0.00;0.00;0.62;0.00;0.00;0.62;6.50;5.67;;;29.20;30.90;;;;;;2257164;61;20422;-61
2023/09/07 09:58:18;0.00;0.00;0.62;0.00;0.00;0.62;6.63;5.60;;;29.30;30.90;;;;;;2256872;61;20355;-60
2023/09/07 10:01:05;0.00;0.00;0.62;0.00;0.00;0.62;7.10;5.50;;;29.20;30.90;;;;;;2256505;61;20359;-60
2023/09/07 10:03:51;0.00;0.00;0.62;0.00;0.00;0.62;5.83;5.33;;;29.20;30.90;;;;;;2257382;61;20386;-61
2023/09/07 10:06:36;0.00;0.00;0.62;0.00;0.00;0.62;6.73;6.10;;;29.30;31.10;;;;;;2256600;61;20430;-61
2023/09/07 10:09:20;0.00;0.00;0.62;0.00;0.00;0.62;8.73;5.33;;;29.30;31.10;;;;;;2257271;61;20418;-61
2023/09/07 10:12:12;0.00;0.00;0.62;0.00;0.00;0.62;6.60;5.90;;;29.30;31.10;;;;;;2257069;61;20410;-61
2023/09/07 10:14:57;0.00;0.00;0.62;0.00;0.00;0.62;10.30;6.40;;;29.30;31.10;;;;;;2257109;61;20367;-61
2023/09/07 10:17:41;0.00;0.00;0.62;0.00;0.00;0.62;9.07;6.73;;;29.30;31.20;;;;;;2257406;61;20578;-61
2023/09/07 10:20:26;0.00;0.00;0.62;0.00;0.00;0.62;10.13;6.20;;;29.30;31.20;;;;;;2256870;61;20375;-61
2023/09/07 10:23:10;0.00;0.00;0.62;0.00;0.00;0.62;7.00;5.60;;;29.30;31.20;;;;;;2257003;61;20431;-61
2023/09/07 10:25:57;0.00;0.00;0.62;0.00;0.00;0.62;7.43;6.40;;;29.30;31.20;;;;;;2256884;61;20362;-61
2023/09/07 10:28:44;0.00;0.00;0.62;0.00;0.00;0.62;7.50;6.33;;;29.30;31.10;;;;;;2257208;61;20385;-61
2023/09/07 10:31:30;0.00;0.00;0.62;0.00;0.00;0.62;6.10;5.50;;;29.40;31.30;;;;;;2256233;61;20367;-61
2023/09/07 10:34:17;0.00;0.00;0.62;0.00;0.00;0.62;6.90;6.30;;;29.40;31.30;;;;;;2257723;61;20434;-61
2023/09/07 10:37:03;0.00;0.00;0.62;0.00;0.00;0.62;7.43;6.10;;;29.40;31.20;;;;;;2257284;61;20390;-61
2023/09/07 10:39:50;0.00;0.00;0.62;0.00;0.00;0.62;9.73;6.40;;;29.40;31.30;;;;;;2257169;61;20451;-62
2023/09/07 10:42:35;0.00;0.00;0.62;0.00;0.00;0.62;9.27;5.83;;;29.40;31.30;;;;;;2257360;61;20382;-61
2023/09/07 10:45:21;0.00;0.00;0.62;0.00;0.00;0.62;6.50;5.90;;;29.40;31.30;;;;;;2256964;61;20422;-60
2023/09/07 10:48:08;0.00;0.00;0.62;0.00;0.00;0.62;7.20;6.53;;;29.40;31.30;;;;;;2256917;61;20526;-61
2023/09/07 10:50:53;0.00;0.00;0.62;0.00;0.00;0.62;7.10;6.00;;;29.40;31.30;;;;;;2256883;61;20385;-61
2023/09/07 10:53:39;0.00;0.00;0.62;0.00;0.00;0.62;7.20;6.00;;;29.40;31.00;;;;;;2257005;61;20431;-61